Últimos sismos

UTC
MagnitudMag. Fecha y hora Epicentro localización: latitud, longitud loc.: lat., long. ProfundidadProf.
4.0 2018-10-18    19:39:36 15 km al OESTE de ACAPULCO, GRO: 16.87°, -100.04° 2 km
4.2 2018-10-18    17:50:54 7 km al ESTE de S PEDRO POCHUTLA, OAX: 15.74°, -96.40° 16 km
3.6 2018-10-18    08:35:08 28 km al OESTE de COYUCA DE BENITEZ, GRO: 16.96°, -100.34° 34 km
3.6 2018-10-18    07:42:34 29 km al SUROESTE de HUIXTLA, CHIS: 14.93°, -92.64° 104 km
3.3 2018-10-18    07:02:55 19 km al SUR de PINOTEPA NACIONAL, OAX: 16.17°, -98.03° 16 km
3.3 2018-10-18    07:02:07 18 km al SURESTE de PINOTEPA NACIONAL, OAX: 16.18°, -98.00° 39 km
3.8 2018-10-18    06:57:00 19 km al SUR de PINOTEPA NACIONAL, OAX: 16.17°, -98.04° 17 km
4.1 2018-10-18    06:52:37 17 km al SUR de PINOTEPA NACIONAL, OAX: 16.19°, -98.03° 16 km
3.6 2018-10-18    06:50:12 24 km al SURESTE de COALCOMAN, MICH: 18.66°, -102.97° 72 km
3.7 2018-10-18    06:31:17 15 km al SUROESTE de PINOTEPA NACIONAL, OAX: 16.22°, -98.11° 17 km
3.1 2018-10-18    06:16:23 28 km al SUROESTE de CIHUATLAN, JAL: 19.08°, -104.77° 11 km
3.5 2018-10-18    06:13:20 45 km al NORESTE de MATIAS ROMERO, OAX: 17.24°, -94.87° 125 km
3.4 2018-10-18    05:41:04 10 km al SUROESTE de OMETEPEC, GRO: 16.62°, -98.47° 30 km
3.5 2018-10-18    05:27:24 25 km al SUROESTE de OMETEPEC, GRO: 16.56°, -98.60° 10 km
3.7 2018-10-18    04:47:30 100 km al SURESTE de SALINA CRUZ, OAX: 15.40°, -94.72° 16 km
3.7 2018-10-18    04:08:29 121 km al SURESTE de SALINA CRUZ, OAX: 15.24°, -94.63° 15 km
3.4 2018-10-18    04:04:39 16 km al SUROESTE de JUCHITAN DE ZARAGOZA, OAX: 16.29°, -95.06° 64 km
3.5 2018-10-18    04:00:32 12 km al NORESTE de S BLAS ATEMPA, OAX: 16.43°, -95.18° 62 km
3.9 2018-10-18    03:50:40 14 km al SUROESTE de PINOTEPA NACIONAL, OAX: 16.23°, -98.10° 14 km
3.6 2018-10-18    03:18:26 21 km al SUR de PINOTEPA NACIONAL, OAX: 16.15°, -98.01° 16 km
3.7 2018-10-18    03:00:46 21 km al NORESTE de RIO GRANDE, OAX: 16.18°, -97.34° 16 km
3.9 2018-10-18    02:54:14 53 km al SUROESTE de S PEDRO POCHUTLA, OAX: 15.33°, -96.71° 15 km
3.7 2018-10-18    02:21:56 29 km al SUROESTE de OCOZOCOAUTLA, CHIS: 16.53°, -93.50° 159 km
3.0 2018-10-18    02:15:44 29 km al OESTE de COQUIMATLAN, COL: 19.25°, -104.08° 27 km
3.3 2018-10-18    02:05:26 14 km al SURESTE de SAN MARCOS, GRO: 16.71°, -99.29° 33 km
3.4 2018-10-18    01:52:27 47 km al SUROESTE de COALCOMAN, MICH: 18.51°, -103.50° 56 km
3.1 2018-10-18    01:51:32 30 km al SURESTE de EL GRULLO, JAL: 19.59°, -104.05° 13 km
4.0 2018-10-18    01:29:29 65 km al NORESTE de MATIAS ROMERO, OAX: 17.15°, -94.50° 136 km
3.7 2018-10-18    01:21:50 22 km al SUROESTE de PUERTO VALLARTA, JAL: 20.46°, -105.36° 23 km
4.1 2018-10-18    01:14:07 140 km al SUROESTE de HUIXTLA, CHIS: 14.28°, -93.43° 10 km
3.6 2018-10-18    01:07:20 28 km al SUR de MAPASTEPEC, CHIS: 15.19°, -92.89° 90 km
3.9 2018-10-18    00:53:17 106 km al SURESTE de SALINA CRUZ, OAX: 15.45°, -94.55° 18 km

Sismo de magnitud menor de 4.0

Sismo de magnitud entre 4.0 y 5.9

Sismo de magnitud igual o mayor de 6.0

Si deseas más información,
consulta nuestro

Catálogo de sismos